createdAt,value
2023-04-28T00:01:21.519Z,22.77
2023-04-28T00:03:50.993Z,22.90
2023-04-28T00:06:20.598Z,22.92
2023-04-28T00:08:49.851Z,22.35
2023-04-28T00:11:19.154Z,22.83
2023-04-28T00:13:48.541Z,22.92
2023-04-28T00:16:17.955Z,23.02
2023-04-28T00:18:47.361Z,24.02
2023-04-28T00:21:16.692Z,24.30
2023-04-28T00:23:46.050Z,23.13
2023-04-28T00:26:15.567Z,22.98
2023-04-28T00:28:44.882Z,24.65
2023-04-28T00:31:17.345Z,24.15
2023-04-28T00:33:47.092Z,27.10
2023-04-28T00:36:16.719Z,22.95
2023-04-28T00:38:46.000Z,22.00
2023-04-28T00:41:16.552Z,21.85
2023-04-28T00:43:50.561Z,22.25
2023-04-28T00:46:28.273Z,22.25
2023-04-28T00:48:58.949Z,22.73
2023-04-28T00:51:30.080Z,21.10
2023-04-28T00:53:59.796Z,22.55
2023-04-28T00:56:32.322Z,23.67
2023-04-28T00:59:01.895Z,26.05
2023-04-28T01:01:31.746Z,28.42
2023-04-28T01:04:01.529Z,27.35
2023-04-28T01:06:32.004Z,25.35
2023-04-28T01:09:01.414Z,22.83
2023-04-28T01:11:30.751Z,21.20
2023-04-28T01:14:01.419Z,19.80
2023-04-28T01:16:33.508Z,19.48
2023-04-28T01:19:03.369Z,19.83
2023-04-28T01:21:36.338Z,19.77
2023-04-28T01:24:07.858Z,19.27
2023-04-28T01:26:37.255Z,19.08
2023-04-28T01:29:06.720Z,21.02
2023-04-28T01:31:36.231Z,20.10
2023-04-28T01:34:05.913Z,17.55
2023-04-28T01:36:37.563Z,17.65
2023-04-28T01:39:08.156Z,18.75
2023-04-28T01:41:37.649Z,18.88
2023-04-28T01:44:08.926Z,18.33
2023-04-28T01:46:38.376Z,21.50
2023-04-28T01:49:07.931Z,22.75
2023-04-28T01:51:37.253Z,21.83
2023-04-28T01:54:06.944Z,20.60
2023-04-28T01:56:39.226Z,18.95
2023-04-28T01:59:08.627Z,19.08
2023-04-28T02:01:38.002Z,16.90
2023-04-28T02:04:07.783Z,18.17
2023-04-28T02:06:38.182Z,19.27
2023-04-28T02:09:07.516Z,16.75
2023-04-28T02:11:36.813Z,15.20
2023-04-28T02:14:06.171Z,14.23
2023-04-28T02:16:35.721Z,14.38
2023-04-28T02:19:05.140Z,13.82
2023-04-28T02:21:34.513Z,14.82
2023-04-28T02:24:04.183Z,15.52
2023-04-28T02:26:35.330Z,14.57
2023-04-28T02:29:07.446Z,15.30
2023-04-28T02:31:39.953Z,15.65
2023-04-28T02:34:09.453Z,13.98
2023-04-28T02:36:38.869Z,13.13
2023-04-28T02:39:08.549Z,13.80
2023-04-28T02:41:40.294Z,12.80
2023-04-28T02:44:09.646Z,12.80
2023-04-28T02:46:39.019Z,13.50
2023-04-28T02:49:08.713Z,12.43
2023-04-28T02:51:38.057Z,12.35
2023-04-28T02:54:07.474Z,11.63
2023-04-28T02:56:38.262Z,11.20
2023-04-28T02:59:10.248Z,11.40
2023-04-28T03:01:39.684Z,11.73
2023-04-28T03:04:09.548Z,11.88
2023-04-28T03:06:39.094Z,12.02
2023-04-28T03:09:09.002Z,11.25
2023-04-28T03:11:39.297Z,12.20
2023-04-28T03:14:09.228Z,11.15
2023-04-28T03:16:38.801Z,12.38
2023-04-28T03:19:08.153Z,11.77
2023-04-28T03:21:37.502Z,11.02
2023-04-28T03:24:07.323Z,12.65
2023-04-28T03:26:37.588Z,11.85
2023-04-28T03:29:07.153Z,12.60
2023-04-28T03:31:36.456Z,11.45
2023-04-28T03:34:05.827Z,10.88
2023-04-28T03:36:35.191Z,12.50
2023-04-28T03:39:04.425Z,11.32
2023-04-28T03:41:33.749Z,11.50
2023-04-28T03:44:02.966Z,11.43
2023-04-28T03:46:32.314Z,11.20
2023-04-28T03:49:03.291Z,10.90
2023-04-28T03:51:33.950Z,11.15
2023-04-28T03:54:03.457Z,11.85
2023-04-28T03:56:32.685Z,11.20
2023-04-28T03:59:02.081Z,11.65
2023-04-28T04:01:31.562Z,11.63
2023-04-28T04:04:00.993Z,11.32
2023-04-28T04:06:30.750Z,10.52
2023-04-28T04:09:00.452Z,11.30
2023-04-28T04:11:29.753Z,9.95
2023-04-28T04:13:58.953Z,9.77
2023-04-28T04:16:28.539Z,9.48
2023-04-28T04:18:57.917Z,10.55
2023-04-28T04:21:27.467Z,10.40
2023-04-28T04:23:56.940Z,9.30
2023-04-28T04:26:26.320Z,9.57
2023-04-28T04:28:55.494Z,9.13
2023-04-28T04:31:24.762Z,10.18
2023-04-28T04:33:54.414Z,9.60
2023-04-28T04:36:23.966Z,9.60
2023-04-28T04:38:54.527Z,10.20
2023-04-28T04:41:25.128Z,9.77
2023-04-28T04:43:54.391Z,9.77
2023-04-28T04:46:24.937Z,10.88
2023-04-28T04:48:54.194Z,11.00
2023-04-28T04:51:23.613Z,10.07
2023-04-28T04:53:52.971Z,9.73
2023-04-28T04:56:22.298Z,9.68
2023-04-28T04:58:53.796Z,9.63
2023-04-28T05:01:23.164Z,9.25
2023-04-28T05:03:52.654Z,9.98
2023-04-28T05:06:22.425Z,9.35
2023-04-28T05:08:51.742Z,10.20
2023-04-28T05:11:21.393Z,10.50
2023-04-28T05:13:50.634Z,13.90
2023-04-28T05:16:19.877Z,11.77
2023-04-28T05:18:49.428Z,11.45
2023-04-28T05:21:18.688Z,11.05
2023-04-28T05:23:48.409Z,11.30
2023-04-28T05:26:17.860Z,10.55
2023-04-28T05:28:47.061Z,10.48
2023-04-28T05:31:17.368Z,10.32
2023-04-28T05:33:46.561Z,10.18
2023-04-28T05:36:18.009Z,10.73
2023-04-28T05:38:47.389Z,9.73
2023-04-28T05:41:16.887Z,14.02
2023-04-28T05:43:47.354Z,11.82
2023-04-28T05:46:29.261Z,12.18
2023-04-28T05:49:00.325Z,10.95
2023-04-28T05:51:29.614Z,11.00
2023-04-28T05:53:59.193Z,13.10
2023-04-28T05:56:28.497Z,10.68
2023-04-28T05:58:59.575Z,10.88
2023-04-28T06:01:28.833Z,10.80
2023-04-28T06:03:59.839Z,10.93
2023-04-28T06:06:30.479Z,11.50
2023-04-28T06:08:59.715Z,11.57
2023-04-28T06:11:28.951Z,11.02
2023-04-28T06:13:58.406Z,11.43
2023-04-28T06:16:28.224Z,10.25
2023-04-28T06:18:57.593Z,11.02
2023-04-28T06:21:28.408Z,10.18
2023-04-28T06:24:01.822Z,10.18
2023-04-28T06:26:31.998Z,10.27
2023-04-28T06:29:01.564Z,12.07
2023-04-28T06:31:31.057Z,10.20
2023-04-28T06:34:00.264Z,10.07
2023-04-28T06:36:29.494Z,10.93
2023-04-28T06:38:59.889Z,10.65
2023-04-28T06:41:30.241Z,10.07
2023-04-28T06:43:59.470Z,10.40
2023-04-28T06:46:28.826Z,10.25
2023-04-28T06:48:58.404Z,9.98
2023-04-28T06:51:28.188Z,9.93
2023-04-28T06:53:57.431Z,10.80
2023-04-28T06:56:27.043Z,9.85
2023-04-28T06:59:00.847Z,9.82
2023-04-28T07:01:30.246Z,10.27
2023-04-28T07:03:59.540Z,10.23
2023-04-28T07:06:29.648Z,8.75
2023-04-28T07:08:58.862Z,9.98
2023-04-28T07:11:28.178Z,9.90
2023-04-28T07:13:57.327Z,9.15
2023-04-28T07:16:27.741Z,9.88
2023-04-28T07:18:57.197Z,10.82
2023-04-28T07:21:26.850Z,10.27
2023-04-28T07:23:59.340Z,10.00
2023-04-28T07:26:28.624Z,10.68
2023-04-28T07:28:58.094Z,9.20
2023-04-28T07:31:27.803Z,10.02
2023-04-28T07:33:57.864Z,10.98
2023-04-28T07:36:27.929Z,9.90
2023-04-28T07:38:57.297Z,9.75
2023-04-28T07:41:29.040Z,10.50
2023-04-28T07:43:58.413Z,11.00
2023-04-28T07:46:28.343Z,10.45
2023-04-28T07:48:57.965Z,10.48
2023-04-28T07:51:27.969Z,10.05
2023-04-28T07:53:57.380Z,10.48
2023-04-28T07:56:27.616Z,10.15
2023-04-28T07:58:57.266Z,9.38
2023-04-28T08:01:26.601Z,10.25
2023-04-28T08:03:56.129Z,10.77
2023-04-28T08:06:26.716Z,9.27
2023-04-28T08:08:57.336Z,10.40
2023-04-28T08:11:26.748Z,9.50
2023-04-28T08:13:56.293Z,11.07
2023-04-28T08:16:25.659Z,10.45
2023-04-28T08:18:55.224Z,10.38
2023-04-28T08:21:24.601Z,9.15
2023-04-28T08:23:53.850Z,10.77
2023-04-28T08:26:23.380Z,10.20
2023-04-28T08:28:53.148Z,9.85
2023-04-28T08:31:22.537Z,9.27
2023-04-28T08:33:53.158Z,10.38
2023-04-28T08:36:24.618Z,11.18
2023-04-28T08:38:54.031Z,10.57
2023-04-28T08:41:23.911Z,11.20
2023-04-28T08:43:53.118Z,10.40
2023-04-28T08:46:25.292Z,10.20
2023-04-28T08:49:02.377Z,9.90
2023-04-28T08:51:42.017Z,9.80
2023-04-28T08:54:25.498Z,10.35
2023-04-28T08:56:58.414Z,9.68
2023-04-28T08:59:28.599Z,10.40
2023-04-28T09:01:58.443Z,10.45
2023-04-28T09:04:28.330Z,10.77
2023-04-28T09:06:58.549Z,9.35
2023-04-28T09:09:34.725Z,10.40
2023-04-28T09:12:05.905Z,10.18
2023-04-28T09:14:37.626Z,10.63
2023-04-28T09:17:15.649Z,10.82
2023-04-28T09:19:45.143Z,10.30
2023-04-28T09:22:26.278Z,10.90
2023-04-28T09:24:57.163Z,10.15
2023-04-28T09:27:30.848Z,10.52
2023-04-28T09:30:00.198Z,9.95
2023-04-28T09:32:30.513Z,12.27
2023-04-28T09:35:00.682Z,10.23
2023-04-28T09:37:33.434Z,9.88
2023-04-28T09:40:12.050Z,10.20
2023-04-28T09:42:44.018Z,10.20
2023-04-28T09:45:16.426Z,10.60
2023-04-28T09:47:49.249Z,10.75
2023-04-28T09:50:19.446Z,10.80
2023-04-28T09:53:00.217Z,11.52
2023-04-28T09:55:33.614Z,11.63
2023-04-28T09:58:08.613Z,11.85
2023-04-28T10:00:41.803Z,11.57
2023-04-28T10:03:17.661Z,11.90
2023-04-28T10:05:47.694Z,12.70
2023-04-28T10:08:17.758Z,10.60
2023-04-28T10:10:50.205Z,11.68
2023-04-28T10:13:21.092Z,12.50
2023-04-28T10:15:57.075Z,11.27
2023-04-28T10:18:27.907Z,13.85
2023-04-28T10:21:06.319Z,10.70
2023-04-28T10:24:11.050Z,12.35
2023-04-28T10:27:11.780Z,11.90
2023-04-28T10:29:41.198Z,12.35
2023-04-28T10:32:27.203Z,12.15
2023-04-28T10:35:34.366Z,11.90
2023-04-28T10:38:24.344Z,12.60
2023-04-28T10:40:55.461Z,12.75
2023-04-28T10:43:41.178Z,12.10
2023-04-28T10:46:12.588Z,13.30
2023-04-28T10:48:50.872Z,12.43
2023-04-28T10:51:20.161Z,12.98
2023-04-28T10:53:50.515Z,12.60
2023-04-28T10:56:31.303Z,12.15
2023-04-28T10:59:01.813Z,12.32
2023-04-28T11:01:35.636Z,12.90
2023-04-28T11:04:14.368Z,13.55
2023-04-28T11:06:48.918Z,12.60
2023-04-28T11:09:21.285Z,14.20
2023-04-28T11:12:03.206Z,16.40
2023-04-28T11:14:34.014Z,16.58
2023-04-28T11:17:14.314Z,17.65
2023-04-28T11:19:46.764Z,18.92
2023-04-28T11:22:21.944Z,17.75
2023-04-28T11:25:05.204Z,17.10
2023-04-28T11:27:35.901Z,17.20
2023-04-28T11:30:07.156Z,15.60
2023-04-28T11:32:37.769Z,14.57
2023-04-28T11:35:10.711Z,16.05
2023-04-28T11:37:40.111Z,14.85
2023-04-28T11:40:16.809Z,14.73
2023-04-28T11:42:52.474Z,17.02
2023-04-28T11:45:22.041Z,16.10
2023-04-28T11:47:51.421Z,15.60
2023-04-28T11:50:39.219Z,16.05
2023-04-28T11:55:38.848Z,15.80
2023-04-28T11:58:28.908Z,15.93
2023-04-28T12:01:12.792Z,16.70
2023-04-28T12:03:49.599Z,19.15
2023-04-28T12:06:21.922Z,20.10
2023-04-28T12:08:55.799Z,19.80
2023-04-28T12:11:25.857Z,18.48
2023-04-28T12:14:11.550Z,18.85
2023-04-28T12:16:46.067Z,18.02
2023-04-28T12:19:16.664Z,18.50
2023-04-28T12:21:46.203Z,18.65
2023-04-28T12:24:22.669Z,18.55
2023-04-28T12:26:52.053Z,18.23
2023-04-28T12:29:44.245Z,21.30
2023-04-28T12:32:14.831Z,18.00
2023-04-28T12:34:47.194Z,19.05
2023-04-28T12:37:16.611Z,19.50
2023-04-28T12:39:46.568Z,18.83
2023-04-28T12:42:16.068Z,18.80
2023-04-28T12:44:46.486Z,20.02
2023-04-28T12:47:16.453Z,18.95
2023-04-28T12:49:46.343Z,19.40
2023-04-28T12:52:15.731Z,18.52
2023-04-28T12:54:48.216Z,19.73
2023-04-28T12:57:19.436Z,19.67
2023-04-28T12:59:49.525Z,19.17
2023-04-28T13:02:18.817Z,19.05
2023-04-28T13:04:48.890Z,20.17
2023-04-28T13:07:18.941Z,21.10
2023-04-28T13:09:48.501Z,21.52
2023-04-28T13:12:17.911Z,20.77
2023-04-28T13:14:47.399Z,22.05
2023-04-28T13:17:17.115Z,21.58
2023-04-28T13:19:46.660Z,22.85
2023-04-28T13:22:16.893Z,22.90
2023-04-28T13:24:46.958Z,23.08
2023-04-28T13:27:16.733Z,23.20
2023-04-28T13:29:46.914Z,23.67
2023-04-28T13:32:19.511Z,22.88
2023-04-28T13:34:49.245Z,25.30
2023-04-28T13:37:18.642Z,25.25
2023-04-28T13:39:48.232Z,29.73
2023-04-28T13:42:17.508Z,28.80
2023-04-28T13:44:50.652Z,28.40
2023-04-28T13:47:20.338Z,28.60
2023-04-28T13:49:49.791Z,28.92
2023-04-28T13:52:19.938Z,29.55
2023-04-28T13:54:49.588Z,27.55
2023-04-28T13:57:19.596Z,28.73
2023-04-28T13:59:48.955Z,25.60
2023-04-28T14:02:18.415Z,26.90
2023-04-28T14:04:50.607Z,26.60
2023-04-28T14:07:20.627Z,25.17
2023-04-28T14:09:51.641Z,25.17
2023-04-28T14:12:21.384Z,23.40
2023-04-28T14:14:50.725Z,25.08
2023-04-28T14:17:20.125Z,37.22
2023-04-28T14:19:49.784Z,27.55
2023-04-28T14:22:19.238Z,20.25
2023-04-28T14:24:48.770Z,19.60
2023-04-28T14:27:18.636Z,18.45
2023-04-28T14:29:50.797Z,20.65
2023-04-28T14:32:22.375Z,18.63
2023-04-28T14:34:52.441Z,18.05
2023-04-28T14:37:21.890Z,17.35
2023-04-28T14:39:51.547Z,15.82
2023-04-28T14:42:21.380Z,15.65
2023-04-28T14:44:51.776Z,16.92
2023-04-28T14:47:22.831Z,16.10
2023-04-28T14:49:55.560Z,15.13
2023-04-28T14:52:28.212Z,14.93
2023-04-28T14:54:59.463Z,14.95
2023-04-28T14:57:29.458Z,15.60
2023-04-28T14:59:59.533Z,15.18
2023-04-28T15:02:30.569Z,16.45
2023-04-28T15:05:00.946Z,15.63
2023-04-28T15:07:32.248Z,16.48
2023-04-28T15:10:02.429Z,15.25
2023-04-28T15:12:33.075Z,15.88
2023-04-28T15:15:02.959Z,16.63
2023-04-28T15:17:32.476Z,16.45
2023-04-28T15:20:02.066Z,16.23
2023-04-28T15:22:31.532Z,15.68
2023-04-28T15:25:01.302Z,15.55
2023-04-28T15:27:30.692Z,15.98
2023-04-28T15:30:00.207Z,15.93
2023-04-28T15:32:30.558Z,16.27
2023-04-28T15:35:00.586Z,15.52
2023-04-28T15:37:45.651Z,15.57
2023-04-28T15:40:17.897Z,16.08
2023-04-28T15:42:53.253Z,16.40
2023-04-28T15:45:24.237Z,16.58
2023-04-28T15:47:55.899Z,16.88
2023-04-28T15:50:25.568Z,15.82
2023-04-28T15:52:55.456Z,16.17
2023-04-28T15:55:26.261Z,14.80
2023-04-28T15:57:55.667Z,15.27
2023-04-28T16:00:25.646Z,16.27
2023-04-28T16:02:55.182Z,15.73
2023-04-28T16:05:25.132Z,15.48
2023-04-28T16:07:56.205Z,16.90
2023-04-28T16:10:25.746Z,16.15
2023-04-28T16:12:55.146Z,15.32
2023-04-28T16:15:24.754Z,14.85
2023-04-28T16:17:56.617Z,16.83
2023-04-28T16:20:26.128Z,16.65
2023-04-28T16:22:55.483Z,16.30
2023-04-28T16:25:25.042Z,15.43
2023-04-28T16:27:54.405Z,17.10
2023-04-28T16:30:24.201Z,16.13
2023-04-28T16:32:54.323Z,16.48
2023-04-28T16:35:23.864Z,17.15
2023-04-28T16:37:53.410Z,15.85
2023-04-28T16:40:23.295Z,15.90
2023-04-28T16:42:52.671Z,16.55
2023-04-28T16:45:22.015Z,15.95
2023-04-28T16:47:51.397Z,17.30
2023-04-28T16:50:20.865Z,17.15
2023-04-28T16:52:50.702Z,16.58
2023-04-28T16:55:20.116Z,17.63
2023-04-28T16:57:49.690Z,16.45
2023-04-28T17:00:19.858Z,16.40
2023-04-28T17:02:49.372Z,16.08
2023-04-28T17:05:19.071Z,16.13
2023-04-28T17:07:48.813Z,16.02
2023-04-28T17:10:18.083Z,17.40
2023-04-28T17:12:47.437Z,16.08
2023-04-28T17:15:18.480Z,18.48
2023-04-28T17:17:52.534Z,16.90
2023-04-28T17:20:22.480Z,17.70
2023-04-28T17:22:52.037Z,16.63
2023-04-28T17:25:23.684Z,17.60
2023-04-28T17:27:53.129Z,17.70
2023-04-28T17:30:22.457Z,17.23
2023-04-28T17:32:51.927Z,18.02
2023-04-28T17:35:21.356Z,18.45
2023-04-28T17:37:50.536Z,17.38
2023-04-28T17:40:19.857Z,17.42
2023-04-28T17:42:49.116Z,17.67
2023-04-28T17:45:18.563Z,16.65
2023-04-28T17:47:48.005Z,17.75
2023-04-28T17:50:17.292Z,17.63
2023-04-28T17:52:46.524Z,17.08
2023-04-28T17:55:16.803Z,17.65
2023-04-28T17:57:46.280Z,18.45
2023-04-28T18:00:16.012Z,17.75
2023-04-28T18:02:45.339Z,18.25
2023-04-28T18:05:15.050Z,18.08
2023-04-28T18:07:45.489Z,17.92
2023-04-28T18:10:16.112Z,18.92
2023-04-28T18:12:46.286Z,17.70
2023-04-28T18:15:15.884Z,18.60
2023-04-28T18:17:48.192Z,18.80
2023-04-28T18:20:17.533Z,18.73
2023-04-28T18:22:47.387Z,17.85
2023-04-28T18:25:18.027Z,18.17
2023-04-28T18:27:48.009Z,16.65
2023-04-28T18:30:17.213Z,19.25
2023-04-28T18:32:49.945Z,17.13
2023-04-28T18:35:20.020Z,18.70
2023-04-28T18:37:49.465Z,18.40
2023-04-28T18:40:18.918Z,18.73
2023-04-28T18:42:48.214Z,18.10
2023-04-28T18:45:17.461Z,17.75
2023-04-28T18:47:46.773Z,17.90
2023-04-28T18:50:16.322Z,16.25
2023-04-28T18:52:45.564Z,17.48
2023-04-28T18:55:15.394Z,17.90
2023-04-28T18:57:44.681Z,18.08
2023-04-28T19:00:14.120Z,18.15
2023-04-28T19:02:44.198Z,17.17
2023-04-28T19:05:14.361Z,17.58
2023-04-28T19:07:43.828Z,18.65
2023-04-28T19:10:14.296Z,17.92
2023-04-28T19:12:43.544Z,19.10
2023-04-28T19:15:12.906Z,18.30
2023-04-28T19:17:42.206Z,18.05
2023-04-28T19:20:11.776Z,18.17
2023-04-28T19:22:42.396Z,18.77
2023-04-28T19:25:12.977Z,18.20
2023-04-28T19:27:46.094Z,18.23
2023-04-28T19:30:16.681Z,18.35
2023-04-28T19:32:45.882Z,18.98
2023-04-28T19:35:15.562Z,17.33
2023-04-28T19:37:45.535Z,18.70
2023-04-28T19:40:15.098Z,18.13
2023-04-28T19:42:44.335Z,17.92
2023-04-28T19:45:13.767Z,18.45
2023-04-28T19:47:43.239Z,18.25
2023-04-28T19:50:12.716Z,18.38
2023-04-28T19:52:42.795Z,18.58
2023-04-28T19:55:12.482Z,17.58
2023-04-28T19:57:41.965Z,18.38
2023-04-28T20:00:12.286Z,16.92
2023-04-28T20:02:41.634Z,18.30
2023-04-28T20:05:11.455Z,19.08
2023-04-28T20:07:42.488Z,21.23
2023-04-28T20:10:12.752Z,20.52
2023-04-28T20:12:43.275Z,19.67
2023-04-28T20:15:13.440Z,19.30
2023-04-28T20:17:42.797Z,19.25
2023-04-28T20:20:12.938Z,18.60
2023-04-28T20:22:42.394Z,19.20
2023-04-28T20:25:12.174Z,19.50
2023-04-28T20:27:41.818Z,19.77
2023-04-28T20:30:12.060Z,19.52
2023-04-28T20:32:41.806Z,20.98
2023-04-28T20:35:11.505Z,19.17
2023-04-28T20:37:40.949Z,20.42
2023-04-28T20:40:11.575Z,19.70
2023-04-28T20:42:41.787Z,20.77
2023-04-28T20:45:12.414Z,20.73
2023-04-28T20:47:41.891Z,21.10
2023-04-28T20:50:14.772Z,20.40
2023-04-28T20:52:44.171Z,20.30
2023-04-28T20:55:13.768Z,20.02
2023-04-28T20:57:44.776Z,20.75
2023-04-28T21:00:14.741Z,20.38
2023-04-28T21:02:44.314Z,19.42
2023-04-28T21:05:14.119Z,19.13
2023-04-28T21:07:43.720Z,19.67
2023-04-28T21:10:13.244Z,18.70
2023-04-28T21:12:42.617Z,19.88
2023-04-28T21:15:12.478Z,19.45
2023-04-28T21:17:42.144Z,19.73
2023-04-28T21:20:12.297Z,20.20
2023-04-28T21:22:42.291Z,19.35
2023-04-28T21:25:11.779Z,20.45
2023-04-28T21:27:41.253Z,19.38
2023-04-28T21:30:12.804Z,18.98
2023-04-28T21:32:43.133Z,19.58
2023-04-28T21:35:12.517Z,20.02
2023-04-28T21:37:41.944Z,20.48
2023-04-28T21:40:12.388Z,18.77
2023-04-28T21:42:41.744Z,20.02
2023-04-28T21:45:11.937Z,21.35
2023-04-28T21:47:43.449Z,18.75
2023-04-28T21:50:13.177Z,19.92
2023-04-28T21:52:42.480Z,19.70
2023-04-28T21:55:11.984Z,21.75
2023-04-28T21:57:41.426Z,19.63
2023-04-28T22:00:13.534Z,20.38
2023-04-28T22:02:44.018Z,20.23
2023-04-28T22:05:14.160Z,20.52
2023-04-28T22:07:43.654Z,20.35
2023-04-28T22:10:14.388Z,21.38
2023-04-28T22:12:43.579Z,20.90
2023-04-28T22:15:13.344Z,20.85
2023-04-28T22:17:42.650Z,21.58
2023-04-28T22:20:12.355Z,20.92
2023-04-28T22:22:42.640Z,21.38
2023-04-28T22:25:11.984Z,20.75
2023-04-28T22:27:41.521Z,20.67
2023-04-28T22:30:11.889Z,22.50
2023-04-28T22:32:45.308Z,22.27
2023-04-28T22:35:14.867Z,22.95
2023-04-28T22:37:44.507Z,20.83
2023-04-28T22:40:14.015Z,22.52
2023-04-28T22:42:44.565Z,21.85
2023-04-28T22:45:14.272Z,22.05
2023-04-28T22:47:43.836Z,24.30
2023-04-28T22:50:13.996Z,23.65
2023-04-28T22:52:43.544Z,22.90
2023-04-28T22:55:14.534Z,22.00
2023-04-28T22:57:43.935Z,23.65
2023-04-28T23:00:14.064Z,22.92
2023-04-28T23:02:44.013Z,23.20
2023-04-28T23:05:13.661Z,22.42
2023-04-28T23:07:43.307Z,23.92
2023-04-28T23:10:14.431Z,23.65
2023-04-28T23:12:44.464Z,23.75
2023-04-28T23:15:13.945Z,25.58
2023-04-28T23:17:44.631Z,26.23
2023-04-28T23:20:14.469Z,25.17
2023-04-28T23:22:43.650Z,25.08
2023-04-28T23:25:13.364Z,26.42
2023-04-28T23:27:42.563Z,27.27
2023-04-28T23:30:12.773Z,26.45
2023-04-28T23:32:43.403Z,25.92
2023-04-28T23:35:12.721Z,25.65
2023-04-28T23:37:42.233Z,26.38
2023-04-28T23:40:12.743Z,25.48
2023-04-28T23:42:42.184Z,23.95
2023-04-28T23:45:12.106Z,25.73
2023-04-28T23:47:41.745Z,25.23
2023-04-28T23:50:11.857Z,25.95
2023-04-28T23:52:44.946Z,24.20
2023-04-28T23:55:14.383Z,25.90
2023-04-28T23:57:43.831Z,26.20
